sensor_id;sensor_type;location;lat;lon;timestamp;P1;durP1;ratioP1;P2;durP2;ratioP2
44925;SDS011;30662;51.210;7.656;2022-10-16T00:02:01;3.85;;;1.58;;
44925;SDS011;30662;51.210;7.656;2022-10-16T00:04:27;2.75;;;1.60;;
44925;SDS011;30662;51.210;7.656;2022-10-16T00:06:53;3.55;;;1.90;;
44925;SDS011;30662;51.210;7.656;2022-10-16T00:09:19;3.20;;;1.50;;
44925;SDS011;30662;51.210;7.656;2022-10-16T00:11:44;1.98;;;1.35;;
44925;SDS011;30662;51.210;7.656;2022-10-16T00:14:12;6.05;;;1.92;;
44925;SDS011;30662;51.210;7.656;2022-10-16T00:16:39;4.97;;;1.70;;
44925;SDS011;30662;51.210;7.656;2022-10-16T00:19:05;4.85;;;1.90;;
44925;SDS011;30662;51.210;7.656;2022-10-16T00:21:32;4.95;;;1.50;;
44925;SDS011;30662;51.210;7.656;2022-10-16T00:24:00;2.33;;;1.90;;
44925;SDS011;30662;51.210;7.656;2022-10-16T00:26:30;8.02;;;1.70;;
44925;SDS011;30662;51.210;7.656;2022-10-16T00:28:57;8.32;;;2.92;;
44925;SDS011;30662;51.210;7.656;2022-10-16T00:31:23;3.78;;;2.15;;
44925;SDS011;30662;51.210;7.656;2022-10-16T00:33:50;3.42;;;1.65;;
44925;SDS011;30662;51.210;7.656;2022-10-16T00:36:20;4.68;;;1.63;;
44925;SDS011;30662;51.210;7.656;2022-10-16T00:38:49;5.78;;;1.40;;
44925;SDS011;30662;51.210;7.656;2022-10-16T00:41:18;7.47;;;1.60;;
44925;SDS011;30662;51.210;7.656;2022-10-16T00:43:45;4.30;;;1.55;;
44925;SDS011;30662;51.210;7.656;2022-10-16T00:46:17;2.40;;;1.35;;
44925;SDS011;30662;51.210;7.656;2022-10-16T00:49:20;4.90;;;1.67;;
44925;SDS011;30662;51.210;7.656;2022-10-16T00:51:41;4.18;;;1.33;;
44925;SDS011;30662;51.210;7.656;2022-10-16T00:54:30;2.00;;;1.50;;
44925;SDS011;30662;51.210;7.656;2022-10-16T00:56:57;3.13;;;1.42;;
44925;SDS011;30662;51.210;7.656;2022-10-16T00:59:26;2.78;;;1.30;;
44925;SDS011;30662;51.210;7.656;2022-10-16T01:01:53;1.77;;;1.30;;
44925;SDS011;30662;51.210;7.656;2022-10-16T01:04:20;4.82;;;1.80;;
44925;SDS011;30662;51.210;7.656;2022-10-16T01:07:06;4.95;;;1.60;;
44925;SDS011;30662;51.210;7.656;2022-10-16T01:15:37;3.05;;;1.75;;
44925;SDS011;30662;51.210;7.656;2022-10-16T01:20:45;3.92;;;1.83;;
44925;SDS011;30662;51.210;7.656;2022-10-16T01:29:28;4.93;;;2.20;;
44925;SDS011;30662;51.210;7.656;2022-10-16T01:32:02;2.15;;;1.95;;
44925;SDS011;30662;51.210;7.656;2022-10-16T01:34:37;2.53;;;1.95;;
44925;SDS011;30662;51.210;7.656;2022-10-16T01:37:14;3.47;;;1.70;;
44925;SDS011;30662;51.210;7.656;2022-10-16T01:39:45;4.97;;;2.17;;
44925;SDS011;30662;51.210;7.656;2022-10-16T01:44:50;4.15;;;2.15;;
44925;SDS011;30662;51.210;7.656;2022-10-16T01:47:18;4.82;;;1.90;;
44925;SDS011;30662;51.210;7.656;2022-10-16T01:49:48;2.58;;;1.77;;
44925;SDS011;30662;51.210;7.656;2022-10-16T01:52:17;3.13;;;1.95;;
44925;SDS011;30662;51.210;7.656;2022-10-16T01:54:49;2.78;;;2.00;;
44925;SDS011;30662;51.210;7.656;2022-10-16T01:57:18;5.43;;;2.20;;
44925;SDS011;30662;51.210;7.656;2022-10-16T01:59:49;3.83;;;2.42;;
44925;SDS011;30662;51.210;7.656;2022-10-16T02:02:18;4.05;;;1.80;;
44925;SDS011;30662;51.210;7.656;2022-10-16T02:04:47;7.07;;;2.47;;
44925;SDS011;30662;51.210;7.656;2022-10-16T02:07:18;3.63;;;1.80;;
44925;SDS011;30662;51.210;7.656;2022-10-16T02:09:44;5.28;;;2.20;;
44925;SDS011;30662;51.210;7.656;2022-10-16T02:12:14;2.35;;;2.15;;
44925;SDS011;30662;51.210;7.656;2022-10-16T02:14:46;3.40;;;2.10;;
44925;SDS011;30662;51.210;7.656;2022-10-16T02:17:14;4.95;;;2.20;;
44925;SDS011;30662;51.210;7.656;2022-10-16T02:19:42;7.13;;;2.28;;
44925;SDS011;30662;51.210;7.656;2022-10-16T02:22:12;3.05;;;2.10;;
44925;SDS011;30662;51.210;7.656;2022-10-16T02:24:49;2.65;;;2.40;;
44925;SDS011;30662;51.210;7.656;2022-10-16T02:27:32;6.25;;;2.83;;
44925;SDS011;30662;51.210;7.656;2022-10-16T02:30:12;2.63;;;2.13;;
44925;SDS011;30662;51.210;7.656;2022-10-16T02:32:45;3.22;;;1.80;;
44925;SDS011;30662;51.210;7.656;2022-10-16T02:35:13;2.17;;;1.98;;
44925;SDS011;30662;51.210;7.656;2022-10-16T02:37:42;5.15;;;2.10;;
44925;SDS011;30662;51.210;7.656;2022-10-16T02:40:08;2.22;;;1.98;;
44925;SDS011;30662;51.210;7.656;2022-10-16T02:42:36;1.90;;;1.70;;
44925;SDS011;30662;51.210;7.656;2022-10-16T02:45:04;2.10;;;1.83;;
44925;SDS011;30662;51.210;7.656;2022-10-16T02:47:33;1.95;;;1.77;;
44925;SDS011;30662;51.210;7.656;2022-10-16T02:49:59;4.30;;;1.50;;
44925;SDS011;30662;51.210;7.656;2022-10-16T02:52:25;2.60;;;1.85;;
44925;SDS011;30662;51.210;7.656;2022-10-16T02:54:51;4.40;;;1.98;;
44925;SDS011;30662;51.210;7.656;2022-10-16T02:57:17;5.82;;;1.77;;
44925;SDS011;30662;51.210;7.656;2022-10-16T02:59:44;4.95;;;1.85;;
44925;SDS011;30662;51.210;7.656;2022-10-16T03:02:10;1.65;;;1.52;;
44925;SDS011;30662;51.210;7.656;2022-10-16T03:04:36;2.03;;;1.83;;
44925;SDS011;30662;51.210;7.656;2022-10-16T03:07:02;8.88;;;1.98;;
44925;SDS011;30662;51.210;7.656;2022-10-16T03:09:28;5.05;;;2.15;;
44925;SDS011;30662;51.210;7.656;2022-10-16T03:11:54;2.35;;;1.90;;
44925;SDS011;30662;51.210;7.656;2022-10-16T03:14:20;4.15;;;2.00;;
44925;SDS011;30662;51.210;7.656;2022-10-16T03:16:46;4.65;;;2.05;;
44925;SDS011;30662;51.210;7.656;2022-10-16T03:19:12;3.80;;;1.90;;
44925;SDS011;30662;51.210;7.656;2022-10-16T03:21:38;4.90;;;1.55;;
44925;SDS011;30662;51.210;7.656;2022-10-16T03:24:03;1.90;;;1.75;;
44925;SDS011;30662;51.210;7.656;2022-10-16T03:26:30;4.22;;;1.60;;
44925;SDS011;30662;51.210;7.656;2022-10-16T03:28:55;2.05;;;1.55;;
44925;SDS011;30662;51.210;7.656;2022-10-16T03:31:21;3.80;;;1.38;;
44925;SDS011;30662;51.210;7.656;2022-10-16T03:33:47;3.72;;;1.40;;
44925;SDS011;30662;51.210;7.656;2022-10-16T03:36:13;1.70;;;1.40;;
44925;SDS011;30662;51.210;7.656;2022-10-16T03:38:39;1.40;;;1.15;;
44925;SDS011;30662;51.210;7.656;2022-10-16T03:41:05;3.65;;;1.33;;
44925;SDS011;30662;51.210;7.656;2022-10-16T03:43:33;2.25;;;1.50;;
44925;SDS011;30662;51.210;7.656;2022-10-16T03:45:59;2.78;;;1.17;;
44925;SDS011;30662;51.210;7.656;2022-10-16T03:48:25;6.35;;;1.38;;
44925;SDS011;30662;51.210;7.656;2022-10-16T03:50:51;2.50;;;1.50;;
44925;SDS011;30662;51.210;7.656;2022-10-16T03:53:17;2.20;;;1.30;;
44925;SDS011;30662;51.210;7.656;2022-10-16T03:55:43;5.22;;;1.70;;
44925;SDS011;30662;51.210;7.656;2022-10-16T03:58:10;3.25;;;1.45;;
44925;SDS011;30662;51.210;7.656;2022-10-16T04:00:40;2.10;;;1.10;;
44925;SDS011;30662;51.210;7.656;2022-10-16T04:03:06;1.42;;;1.15;;
44925;SDS011;30662;51.210;7.656;2022-10-16T04:05:33;3.03;;;1.00;;
44925;SDS011;30662;51.210;7.656;2022-10-16T04:07:59;1.98;;;1.05;;
44925;SDS011;30662;51.210;7.656;2022-10-16T04:10:25;2.58;;;2.00;;
44925;SDS011;30662;51.210;7.656;2022-10-16T04:12:51;8.25;;;1.42;;
44925;SDS011;30662;51.210;7.656;2022-10-16T04:15:16;1.70;;;1.00;;
44925;SDS011;30662;51.210;7.656;2022-10-16T04:17:42;3.42;;;1.08;;
44925;SDS011;30662;51.210;7.656;2022-10-16T04:20:08;1.20;;;1.02;;
44925;SDS011;30662;51.210;7.656;2022-10-16T04:22:34;3.28;;;1.23;;
44925;SDS011;30662;51.210;7.656;2022-10-16T04:25:00;3.25;;;1.13;;
44925;SDS011;30662;51.210;7.656;2022-10-16T04:27:26;2.45;;;1.20;;
44925;SDS011;30662;51.210;7.656;2022-10-16T04:29:52;3.67;;;1.42;;
44925;SDS011;30662;51.210;7.656;2022-10-16T04:32:18;1.08;;;0.95;;
44925;SDS011;30662;51.210;7.656;2022-10-16T04:34:44;2.50;;;1.20;;
44925;SDS011;30662;51.210;7.656;2022-10-16T04:37:09;2.15;;;1.58;;
44925;SDS011;30662;51.210;7.656;2022-10-16T04:39:35;2.38;;;1.70;;
44925;SDS011;30662;51.210;7.656;2022-10-16T04:42:01;1.85;;;1.17;;
44925;SDS011;30662;51.210;7.656;2022-10-16T04:44:28;1.73;;;1.20;;
44925;SDS011;30662;51.210;7.656;2022-10-16T04:46:53;4.07;;;1.23;;
44925;SDS011;30662;51.210;7.656;2022-10-16T04:49:19;2.95;;;1.58;;
44925;SDS011;30662;51.210;7.656;2022-10-16T04:51:45;4.50;;;1.50;;
44925;SDS011;30662;51.210;7.656;2022-10-16T04:54:11;7.10;;;5.63;;
44925;SDS011;30662;51.210;7.656;2022-10-16T04:56:37;1.67;;;1.58;;
44925;SDS011;30662;51.210;7.656;2022-10-16T04:59:09;1.83;;;1.30;;
44925;SDS011;30662;51.210;7.656;2022-10-16T05:01:35;2.28;;;1.40;;
44925;SDS011;30662;51.210;7.656;2022-10-16T05:04:01;2.58;;;1.80;;
44925;SDS011;30662;51.210;7.656;2022-10-16T05:06:26;1.58;;;1.48;;
44925;SDS011;30662;51.210;7.656;2022-10-16T05:08:52;4.00;;;1.77;;
44925;SDS011;30662;51.210;7.656;2022-10-16T05:11:19;1.98;;;1.38;;
44925;SDS011;30662;51.210;7.656;2022-10-16T05:13:44;1.60;;;1.50;;
44925;SDS011;30662;51.210;7.656;2022-10-16T05:16:10;4.22;;;1.73;;
44925;SDS011;30662;51.210;7.656;2022-10-16T05:18:36;2.10;;;1.73;;
44925;SDS011;30662;51.210;7.656;2022-10-16T05:21:02;2.38;;;1.70;;
44925;SDS011;30662;51.210;7.656;2022-10-16T05:23:28;2.22;;;1.58;;
44925;SDS011;30662;51.210;7.656;2022-10-16T05:25:57;2.60;;;2.00;;
44925;SDS011;30662;51.210;7.656;2022-10-16T05:28:25;2.88;;;1.80;;
44925;SDS011;30662;51.210;7.656;2022-10-16T05:30:52;3.83;;;1.92;;
44925;SDS011;30662;51.210;7.656;2022-10-16T05:33:23;6.15;;;2.30;;
44925;SDS011;30662;51.210;7.656;2022-10-16T05:35:51;3.47;;;2.88;;
44925;SDS011;30662;51.210;7.656;2022-10-16T05:38:17;10.73;;;4.93;;
44925;SDS011;30662;51.210;7.656;2022-10-16T05:40:50;4.00;;;2.05;;
44925;SDS011;30662;51.210;7.656;2022-10-16T05:43:17;3.55;;;1.83;;
44925;SDS011;30662;51.210;7.656;2022-10-16T05:45:43;3.20;;;1.80;;
44925;SDS011;30662;51.210;7.656;2022-10-16T05:48:09;2.28;;;1.60;;
44925;SDS011;30662;51.210;7.656;2022-10-16T05:50:35;2.25;;;2.05;;
44925;SDS011;30662;51.210;7.656;2022-10-16T05:53:00;2.65;;;2.05;;
44925;SDS011;30662;51.210;7.656;2022-10-16T05:55:26;4.25;;;2.17;;
44925;SDS011;30662;51.210;7.656;2022-10-16T05:57:55;3.00;;;2.03;;
44925;SDS011;30662;51.210;7.656;2022-10-16T06:00:21;3.95;;;1.90;;
44925;SDS011;30662;51.210;7.656;2022-10-16T06:02:47;2.25;;;1.98;;
44925;SDS011;30662;51.210;7.656;2022-10-16T06:05:13;2.47;;;1.42;;
44925;SDS011;30662;51.210;7.656;2022-10-16T06:07:38;4.95;;;1.88;;
44925;SDS011;30662;51.210;7.656;2022-10-16T06:10:04;2.80;;;1.75;;
44925;SDS011;30662;51.210;7.656;2022-10-16T06:12:31;3.15;;;1.88;;
44925;SDS011;30662;51.210;7.656;2022-10-16T06:14:56;1.58;;;1.48;;
44925;SDS011;30662;51.210;7.656;2022-10-16T06:17:22;1.77;;;1.67;;
44925;SDS011;30662;51.210;7.656;2022-10-16T06:19:48;5.53;;;1.83;;
44925;SDS011;30662;51.210;7.656;2022-10-16T06:22:14;3.75;;;1.98;;
44925;SDS011;30662;51.210;7.656;2022-10-16T06:24:40;2.65;;;1.98;;
44925;SDS011;30662;51.210;7.656;2022-10-16T06:27:06;3.67;;;2.00;;
44925;SDS011;30662;51.210;7.656;2022-10-16T06:29:32;3.42;;;2.00;;
44925;SDS011;30662;51.210;7.656;2022-10-16T06:31:58;5.18;;;2.03;;
44925;SDS011;30662;51.210;7.656;2022-10-16T06:34:24;3.97;;;1.77;;
44925;SDS011;30662;51.210;7.656;2022-10-16T06:36:50;3.92;;;1.70;;
44925;SDS011;30662;51.210;7.656;2022-10-16T06:39:15;2.65;;;1.60;;
44925;SDS011;30662;51.210;7.656;2022-10-16T06:41:41;1.85;;;1.75;;
44925;SDS011;30662;51.210;7.656;2022-10-16T06:44:07;3.00;;;2.70;;
44925;SDS011;30662;51.210;7.656;2022-10-16T06:46:33;8.38;;;7.57;;
44925;SDS011;30662;51.210;7.656;2022-10-16T06:48:59;2.70;;;2.50;;
44925;SDS011;30662;51.210;7.656;2022-10-16T06:51:25;2.45;;;2.08;;
44925;SDS011;30662;51.210;7.656;2022-10-16T06:53:52;2.25;;;1.88;;
44925;SDS011;30662;51.210;7.656;2022-10-16T06:56:29;5.18;;;2.88;;
44925;SDS011;30662;51.210;7.656;2022-10-16T06:58:56;4.40;;;2.00;;
44925;SDS011;30662;51.210;7.656;2022-10-16T07:01:22;2.13;;;2.03;;
44925;SDS011;30662;51.210;7.656;2022-10-16T07:03:49;7.03;;;2.28;;
44925;SDS011;30662;51.210;7.656;2022-10-16T07:06:18;2.50;;;2.13;;
44925;SDS011;30662;51.210;7.656;2022-10-16T07:08:46;5.03;;;2.40;;
44925;SDS011;30662;51.210;7.656;2022-10-16T07:11:13;3.00;;;2.40;;
44925;SDS011;30662;51.210;7.656;2022-10-16T07:13:42;2.38;;;2.17;;
44925;SDS011;30662;51.210;7.656;2022-10-16T07:16:16;2.33;;;2.13;;
44925;SDS011;30662;51.210;7.656;2022-10-16T07:18:44;4.50;;;1.63;;
44925;SDS011;30662;51.210;7.656;2022-10-16T07:21:13;2.10;;;1.77;;
44925;SDS011;30662;51.210;7.656;2022-10-16T07:23:40;3.75;;;1.80;;
44925;SDS011;30662;51.210;7.656;2022-10-16T07:26:07;4.65;;;1.83;;
44925;SDS011;30662;51.210;7.656;2022-10-16T07:28:35;6.63;;;4.50;;
44925;SDS011;30662;51.210;7.656;2022-10-16T07:31:02;6.20;;;2.22;;
44925;SDS011;30662;51.210;7.656;2022-10-16T07:33:30;2.05;;;1.85;;
44925;SDS011;30662;51.210;7.656;2022-10-16T07:35:56;2.55;;;1.83;;
44925;SDS011;30662;51.210;7.656;2022-10-16T07:38:23;4.07;;;2.75;;
44925;SDS011;30662;51.210;7.656;2022-10-16T07:40:55;2.33;;;2.13;;
44925;SDS011;30662;51.210;7.656;2022-10-16T07:43:25;5.95;;;2.10;;
44925;SDS011;30662;51.210;7.656;2022-10-16T07:45:52;1.90;;;1.70;;
44925;SDS011;30662;51.210;7.656;2022-10-16T07:48:18;3.53;;;1.60;;
44925;SDS011;30662;51.210;7.656;2022-10-16T07:50:45;7.93;;;2.22;;
44925;SDS011;30662;51.210;7.656;2022-10-16T07:53:11;2.60;;;2.05;;
44925;SDS011;30662;51.210;7.656;2022-10-16T07:55:37;1.83;;;1.70;;
44925;SDS011;30662;51.210;7.656;2022-10-16T07:58:04;4.53;;;1.73;;
44925;SDS011;30662;51.210;7.656;2022-10-16T08:00:30;1.77;;;1.60;;
44925;SDS011;30662;51.210;7.656;2022-10-16T08:02:59;3.65;;;1.50;;
44925;SDS011;30662;51.210;7.656;2022-10-16T08:05:28;6.18;;;1.52;;
44925;SDS011;30662;51.210;7.656;2022-10-16T08:07:56;3.47;;;1.65;;
44925;SDS011;30662;51.210;7.656;2022-10-16T08:10:23;1.60;;;1.33;;
44925;SDS011;30662;51.210;7.656;2022-10-16T08:12:51;4.32;;;1.38;;
44925;SDS011;30662;51.210;7.656;2022-10-16T08:15:17;5.20;;;1.48;;
44925;SDS011;30662;51.210;7.656;2022-10-16T08:17:44;1.50;;;1.02;;
44925;SDS011;30662;51.210;7.656;2022-10-16T08:20:10;6.03;;;1.52;;
44925;SDS011;30662;51.210;7.656;2022-10-16T08:22:36;1.58;;;1.48;;
44925;SDS011;30662;51.210;7.656;2022-10-16T08:25:02;2.95;;;1.48;;
44925;SDS011;30662;51.210;7.656;2022-10-16T08:27:31;2.70;;;1.30;;
44925;SDS011;30662;51.210;7.656;2022-10-16T08:29:58;1.60;;;1.10;;
44925;SDS011;30662;51.210;7.656;2022-10-16T08:32:24;1.98;;;1.30;;
44925;SDS011;30662;51.210;7.656;2022-10-16T08:34:53;1.95;;;1.10;;
44925;SDS011;30662;51.210;7.656;2022-10-16T08:37:18;1.67;;;1.27;;
44925;SDS011;30662;51.210;7.656;2022-10-16T08:39:44;3.15;;;1.48;;
44925;SDS011;30662;51.210;7.656;2022-10-16T08:50:08;2.63;;;1.30;;
44925;SDS011;30662;51.210;7.656;2022-10-16T08:52:38;1.55;;;1.33;;
44925;SDS011;30662;51.210;7.656;2022-10-16T08:55:06;2.05;;;1.30;;
44925;SDS011;30662;51.210;7.656;2022-10-16T08:57:42;1.88;;;1.10;;
44925;SDS011;30662;51.210;7.656;2022-10-16T09:00:12;2.80;;;1.00;;
44925;SDS011;30662;51.210;7.656;2022-10-16T09:03:03;2.45;;;1.00;;
44925;SDS011;30662;51.210;7.656;2022-10-16T09:05:39;1.27;;;0.90;;
44925;SDS011;30662;51.210;7.656;2022-10-16T09:18:43;3.55;;;0.70;;
44925;SDS011;30662;51.210;7.656;2022-10-16T09:21:30;4.60;;;1.10;;
44925;SDS011;30662;51.210;7.656;2022-10-16T09:24:17;2.42;;;1.00;;
44925;SDS011;30662;51.210;7.656;2022-10-16T09:26:45;1.33;;;0.50;;
44925;SDS011;30662;51.210;7.656;2022-10-16T09:29:19;4.25;;;1.00;;
44925;SDS011;30662;51.210;7.656;2022-10-16T09:31:47;6.57;;;1.60;;
44925;SDS011;30662;51.210;7.656;2022-10-16T09:37:00;3.47;;;0.55;;
44925;SDS011;30662;51.210;7.656;2022-10-16T09:39:30;3.55;;;0.60;;
44925;SDS011;30662;51.210;7.656;2022-10-16T09:41:56;6.57;;;1.52;;
44925;SDS011;30662;51.210;7.656;2022-10-16T09:44:29;1.80;;;0.82;;
44925;SDS011;30662;51.210;7.656;2022-10-16T09:47:04;2.65;;;1.33;;
44925;SDS011;30662;51.210;7.656;2022-10-16T09:50:02;1.38;;;0.52;;
44925;SDS011;30662;51.210;7.656;2022-10-16T09:52:32;1.40;;;0.40;;
44925;SDS011;30662;51.210;7.656;2022-10-16T09:55:00;0.90;;;0.50;;
44925;SDS011;30662;51.210;7.656;2022-10-16T09:57:27;1.77;;;0.43;;
44925;SDS011;30662;51.210;7.656;2022-10-16T09:59:55;6.15;;;0.70;;
44925;SDS011;30662;51.210;7.656;2022-10-16T10:02:30;1.52;;;0.50;;
44925;SDS011;30662;51.210;7.656;2022-10-16T10:04:59;4.07;;;0.40;;
44925;SDS011;30662;51.210;7.656;2022-10-16T10:07:27;2.00;;;0.60;;
44925;SDS011;30662;51.210;7.656;2022-10-16T10:10:03;1.35;;;0.30;;
44925;SDS011;30662;51.210;7.656;2022-10-16T10:12:31;1.80;;;0.55;;
44925;SDS011;30662;51.210;7.656;2022-10-16T10:15:07;2.03;;;0.40;;
44925;SDS011;30662;51.210;7.656;2022-10-16T10:17:47;1.30;;;0.57;;
44925;SDS011;30662;51.210;7.656;2022-10-16T10:20:21;1.38;;;0.40;;
44925;SDS011;30662;51.210;7.656;2022-10-16T10:22:47;0.90;;;0.22;;
44925;SDS011;30662;51.210;7.656;2022-10-16T10:30:56;1.40;;;0.28;;
44925;SDS011;30662;51.210;7.656;2022-10-16T10:36:51;2.15;;;0.30;;
44925;SDS011;30662;51.210;7.656;2022-10-16T10:39:38;2.35;;;0.20;;
44925;SDS011;30662;51.210;7.656;2022-10-16T10:42:18;0.93;;;0.20;;
44925;SDS011;30662;51.210;7.656;2022-10-16T10:50:30;0.45;;;0.10;;
44925;SDS011;30662;51.210;7.656;2022-10-16T10:53:07;2.95;;;0.30;;
44925;SDS011;30662;51.210;7.656;2022-10-16T10:58:39;0.73;;;0.30;;
44925;SDS011;30662;51.210;7.656;2022-10-16T11:02:03;1.83;;;0.40;;
44925;SDS011;30662;51.210;7.656;2022-10-16T11:06:50;0.80;;;0.32;;
44925;SDS011;30662;51.210;7.656;2022-10-16T11:09:24;1.02;;;0.40;;
44925;SDS011;30662;51.210;7.656;2022-10-16T11:14:51;4.57;;;0.65;;
44925;SDS011;30662;51.210;7.656;2022-10-16T11:17:33;1.25;;;0.32;;
44925;SDS011;30662;51.210;7.656;2022-10-16T11:20:20;0.63;;;0.30;;
44925;SDS011;30662;51.210;7.656;2022-10-16T11:25:23;2.13;;;0.65;;
44925;SDS011;30662;51.210;7.656;2022-10-16T11:36:27;1.63;;;0.17;;
44925;SDS011;30662;51.210;7.656;2022-10-16T11:39:20;1.13;;;0.30;;
44925;SDS011;30662;51.210;7.656;2022-10-16T11:44:57;0.77;;;0.30;;
44925;SDS011;30662;51.210;7.656;2022-10-16T11:55:31;2.92;;;0.52;;
44925;SDS011;30662;51.210;7.656;2022-10-16T11:58:16;1.35;;;0.32;;
44925;SDS011;30662;51.210;7.656;2022-10-16T12:09:41;1.52;;;0.30;;
44925;SDS011;30662;51.210;7.656;2022-10-16T12:12:04;1.35;;;0.38;;
44925;SDS011;30662;51.210;7.656;2022-10-16T12:14:37;1.15;;;0.43;;
44925;SDS011;30662;51.210;7.656;2022-10-16T12:20:24;1.45;;;0.28;;
44925;SDS011;30662;51.210;7.656;2022-10-16T12:23:00;1.65;;;0.20;;
44925;SDS011;30662;51.210;7.656;2022-10-16T12:25:39;1.75;;;0.40;;
44925;SDS011;30662;51.210;7.656;2022-10-16T12:30:41;1.67;;;0.20;;
44925;SDS011;30662;51.210;7.656;2022-10-16T12:33:19;0.90;;;0.65;;
44925;SDS011;30662;51.210;7.656;2022-10-16T12:35:48;1.25;;;0.50;;
44925;SDS011;30662;51.210;7.656;2022-10-16T12:38:19;0.73;;;0.38;;
44925;SDS011;30662;51.210;7.656;2022-10-16T12:41:00;0.77;;;0.25;;
44925;SDS011;30662;51.210;7.656;2022-10-16T12:46:33;0.70;;;0.20;;
44925;SDS011;30662;51.210;7.656;2022-10-16T12:49:56;2.47;;;0.30;;
44925;SDS011;30662;51.210;7.656;2022-10-16T12:51:53;4.18;;;0.70;;
44925;SDS011;30662;51.210;7.656;2022-10-16T12:54:22;0.80;;;0.20;;
44925;SDS011;30662;51.210;7.656;2022-10-16T13:02:13;1.55;;;0.50;;
44925;SDS011;30662;51.210;7.656;2022-10-16T13:13:02;2.63;;;0.52;;
44925;SDS011;30662;51.210;7.656;2022-10-16T13:18:04;1.20;;;0.60;;
44925;SDS011;30662;51.210;7.656;2022-10-16T13:29:33;0.70;;;0.30;;
44925;SDS011;30662;51.210;7.656;2022-10-16T13:32:00;1.52;;;0.60;;
44925;SDS011;30662;51.210;7.656;2022-10-16T13:34:27;2.33;;;0.70;;
44925;SDS011;30662;51.210;7.656;2022-10-16T13:36:53;0.80;;;0.20;;
44925;SDS011;30662;51.210;7.656;2022-10-16T13:39:23;3.55;;;0.50;;
44925;SDS011;30662;51.210;7.656;2022-10-16T13:44:53;1.17;;;0.50;;
44925;SDS011;30662;51.210;7.656;2022-10-16T13:47:21;1.70;;;0.45;;
44925;SDS011;30662;51.210;7.656;2022-10-16T13:50:01;1.67;;;0.57;;
44925;SDS011;30662;51.210;7.656;2022-10-16T13:52:38;4.50;;;0.52;;
44925;SDS011;30662;51.210;7.656;2022-10-16T13:55:09;2.13;;;0.57;;
44925;SDS011;30662;51.210;7.656;2022-10-16T13:57:36;2.90;;;1.00;;
44925;SDS011;30662;51.210;7.656;2022-10-16T14:00:02;0.50;;;0.40;;
44925;SDS011;30662;51.210;7.656;2022-10-16T14:02:42;4.20;;;0.40;;
44925;SDS011;30662;51.210;7.656;2022-10-16T14:05:08;1.20;;;0.57;;
44925;SDS011;30662;51.210;7.656;2022-10-16T14:07:36;3.28;;;0.57;;
44925;SDS011;30662;51.210;7.656;2022-10-16T14:10:07;2.25;;;0.43;;
44925;SDS011;30662;51.210;7.656;2022-10-16T14:12:45;2.05;;;0.40;;
44925;SDS011;30662;51.210;7.656;2022-10-16T14:15:19;2.47;;;0.40;;
44925;SDS011;30662;51.210;7.656;2022-10-16T14:17:45;2.85;;;0.52;;
44925;SDS011;30662;51.210;7.656;2022-10-16T14:20:15;2.67;;;0.77;;
44925;SDS011;30662;51.210;7.656;2022-10-16T14:22:42;2.63;;;0.60;;
44925;SDS011;30662;51.210;7.656;2022-10-16T14:30:31;1.73;;;0.60;;
44925;SDS011;30662;51.210;7.656;2022-10-16T14:33:05;1.95;;;0.50;;
44925;SDS011;30662;51.210;7.656;2022-10-16T14:35:45;3.07;;;0.70;;
44925;SDS011;30662;51.210;7.656;2022-10-16T14:38:18;2.40;;;0.80;;
44925;SDS011;30662;51.210;7.656;2022-10-16T14:40:48;3.13;;;0.90;;
44925;SDS011;30662;51.210;7.656;2022-10-16T14:43:20;2.80;;;0.40;;
44925;SDS011;30662;51.210;7.656;2022-10-16T14:45:51;1.00;;;0.60;;
44925;SDS011;30662;51.210;7.656;2022-10-16T14:48:19;1.52;;;0.43;;
44925;SDS011;30662;51.210;7.656;2022-10-16T14:50:46;4.43;;;0.95;;
44925;SDS011;30662;51.210;7.656;2022-10-16T14:53:12;3.08;;;0.40;;
44925;SDS011;30662;51.210;7.656;2022-10-16T14:55:38;2.05;;;0.60;;
44925;SDS011;30662;51.210;7.656;2022-10-16T14:58:08;1.15;;;0.30;;
44925;SDS011;30662;51.210;7.656;2022-10-16T15:00:55;1.75;;;0.73;;
44925;SDS011;30662;51.210;7.656;2022-10-16T15:03:21;0.73;;;0.40;;
44925;SDS011;30662;51.210;7.656;2022-10-16T15:05:47;2.55;;;0.35;;
44925;SDS011;30662;51.210;7.656;2022-10-16T15:08:13;1.75;;;1.10;;
44925;SDS011;30662;51.210;7.656;2022-10-16T15:10:41;4.47;;;1.02;;
44925;SDS011;30662;51.210;7.656;2022-10-16T15:13:15;4.63;;;1.60;;
44925;SDS011;30662;51.210;7.656;2022-10-16T15:15:44;3.55;;;0.80;;
44925;SDS011;30662;51.210;7.656;2022-10-16T15:18:12;2.45;;;0.90;;
44925;SDS011;30662;51.210;7.656;2022-10-16T15:20:40;1.10;;;0.60;;
44925;SDS011;30662;51.210;7.656;2022-10-16T15:23:12;4.85;;;0.77;;
44925;SDS011;30662;51.210;7.656;2022-10-16T15:25:45;3.63;;;1.00;;
44925;SDS011;30662;51.210;7.656;2022-10-16T15:28:12;1.13;;;0.52;;
44925;SDS011;30662;51.210;7.656;2022-10-16T15:30:40;3.92;;;0.70;;
44925;SDS011;30662;51.210;7.656;2022-10-16T15:33:14;2.92;;;0.60;;
44925;SDS011;30662;51.210;7.656;2022-10-16T15:35:47;6.35;;;0.60;;
44925;SDS011;30662;51.210;7.656;2022-10-16T15:38:15;3.75;;;0.60;;
44925;SDS011;30662;51.210;7.656;2022-10-16T15:40:42;2.35;;;0.50;;
44925;SDS011;30662;51.210;7.656;2022-10-16T15:43:09;7.05;;;0.90;;
44925;SDS011;30662;51.210;7.656;2022-10-16T15:45:36;3.40;;;0.50;;
44925;SDS011;30662;51.210;7.656;2022-10-16T15:48:02;5.50;;;0.85;;
44925;SDS011;30662;51.210;7.656;2022-10-16T15:50:29;6.38;;;1.20;;
44925;SDS011;30662;51.210;7.656;2022-10-16T15:52:57;3.20;;;0.63;;
44925;SDS011;30662;51.210;7.656;2022-10-16T15:55:23;4.63;;;0.85;;
44925;SDS011;30662;51.210;7.656;2022-10-16T15:57:49;2.67;;;0.70;;
44925;SDS011;30662;51.210;7.656;2022-10-16T16:00:16;2.50;;;0.47;;
44925;SDS011;30662;51.210;7.656;2022-10-16T16:02:50;4.85;;;0.70;;
44925;SDS011;30662;51.210;7.656;2022-10-16T16:05:17;3.42;;;0.60;;
44925;SDS011;30662;51.210;7.656;2022-10-16T16:07:43;4.53;;;2.13;;
44925;SDS011;30662;51.210;7.656;2022-10-16T16:10:10;5.90;;;4.07;;
44925;SDS011;30662;51.210;7.656;2022-10-16T16:12:36;5.35;;;0.80;;
44925;SDS011;30662;51.210;7.656;2022-10-16T16:15:07;1.70;;;0.73;;
44925;SDS011;30662;51.210;7.656;2022-10-16T16:17:34;1.20;;;0.50;;
44925;SDS011;30662;51.210;7.656;2022-10-16T16:20:02;5.82;;;1.45;;
44925;SDS011;30662;51.210;7.656;2022-10-16T16:22:30;1.35;;;1.25;;
44925;SDS011;30662;51.210;7.656;2022-10-16T16:24:56;1.00;;;0.60;;
44925;SDS011;30662;51.210;7.656;2022-10-16T16:27:22;2.05;;;0.60;;
44925;SDS011;30662;51.210;7.656;2022-10-16T16:29:50;2.20;;;0.60;;
44925;SDS011;30662;51.210;7.656;2022-10-16T16:32:16;1.55;;;0.80;;
44925;SDS011;30662;51.210;7.656;2022-10-16T16:34:42;1.13;;;0.63;;
44925;SDS011;30662;51.210;7.656;2022-10-16T16:37:08;2.83;;;0.98;;
44925;SDS011;30662;51.210;7.656;2022-10-16T16:39:34;3.33;;;1.13;;
44925;SDS011;30662;51.210;7.656;2022-10-16T16:42:00;2.20;;;0.90;;
44925;SDS011;30662;51.210;7.656;2022-10-16T16:44:26;1.63;;;0.90;;
44925;SDS011;30662;51.210;7.656;2022-10-16T16:46:52;3.78;;;0.88;;
44925;SDS011;30662;51.210;7.656;2022-10-16T16:49:19;2.35;;;1.00;;
44925;SDS011;30662;51.210;7.656;2022-10-16T16:51:45;3.67;;;1.00;;
44925;SDS011;30662;51.210;7.656;2022-10-16T16:54:11;1.77;;;1.42;;
44925;SDS011;30662;51.210;7.656;2022-10-16T16:56:39;5.97;;;2.28;;
44925;SDS011;30662;51.210;7.656;2022-10-16T16:59:15;3.88;;;1.58;;
44925;SDS011;30662;51.210;7.656;2022-10-16T17:01:45;9.95;;;1.20;;
44925;SDS011;30662;51.210;7.656;2022-10-16T17:04:12;3.03;;;0.80;;
44925;SDS011;30662;51.210;7.656;2022-10-16T17:06:40;3.45;;;0.73;;
44925;SDS011;30662;51.210;7.656;2022-10-16T17:09:07;3.92;;;0.40;;
44925;SDS011;30662;51.210;7.656;2022-10-16T17:11:34;1.17;;;0.82;;
44925;SDS011;30662;51.210;7.656;2022-10-16T17:14:01;3.22;;;1.10;;
44925;SDS011;30662;51.210;7.656;2022-10-16T17:16:32;2.72;;;1.88;;